sensor_id;sensor_type;location;lat;lon;timestamp;P1;durP1;ratioP1;P2;durP2;ratioP2
42194;SDS011;27863;49.440;11.102;2023-02-21T00:01:42;7.97;;;2.60;;
42194;SDS011;27863;49.440;11.102;2023-02-21T00:05:01;6.27;;;3.00;;
42194;SDS011;27863;49.440;11.102;2023-02-21T00:08:20;6.83;;;2.83;;
42194;SDS011;27863;49.440;11.102;2023-02-21T00:11:40;3.00;;;2.17;;
42194;SDS011;27863;49.440;11.102;2023-02-21T00:15:00;3.83;;;3.33;;
42194;SDS011;27863;49.440;11.102;2023-02-21T00:18:19;3.40;;;2.77;;
42194;SDS011;27863;49.440;11.102;2023-02-21T00:21:38;4.00;;;2.87;;
42194;SDS011;27863;49.440;11.102;2023-02-21T00:24:58;5.80;;;2.90;;
42194;SDS011;27863;49.440;11.102;2023-02-21T00:28:17;8.93;;;2.70;;
42194;SDS011;27863;49.440;11.102;2023-02-21T00:31:37;2.97;;;2.37;;
42194;SDS011;27863;49.440;11.102;2023-02-21T00:34:57;6.97;;;2.87;;
42194;SDS011;27863;49.440;11.102;2023-02-21T00:38:16;4.10;;;3.03;;
42194;SDS011;27863;49.440;11.102;2023-02-21T00:41:35;5.37;;;3.20;;
42194;SDS011;27863;49.440;11.102;2023-02-21T00:44:54;8.40;;;3.17;;
42194;SDS011;27863;49.440;11.102;2023-02-21T00:48:18;3.53;;;2.83;;
42194;SDS011;27863;49.440;11.102;2023-02-21T00:51:41;4.37;;;2.80;;
42194;SDS011;27863;49.440;11.102;2023-02-21T00:55:00;4.10;;;2.73;;
42194;SDS011;27863;49.440;11.102;2023-02-21T00:58:22;5.37;;;3.10;;
42194;SDS011;27863;49.440;11.102;2023-02-21T01:01:41;5.77;;;2.87;;
42194;SDS011;27863;49.440;11.102;2023-02-21T01:05:00;4.00;;;2.47;;
42194;SDS011;27863;49.440;11.102;2023-02-21T01:08:19;4.27;;;3.23;;
42194;SDS011;27863;49.440;11.102;2023-02-21T01:11:38;6.33;;;2.43;;
42194;SDS011;27863;49.440;11.102;2023-02-21T01:14:57;3.60;;;2.70;;
42194;SDS011;27863;49.440;11.102;2023-02-21T01:18:16;3.20;;;2.87;;
42194;SDS011;27863;49.440;11.102;2023-02-21T01:21:36;5.37;;;3.13;;
42194;SDS011;27863;49.440;11.102;2023-02-21T01:24:55;2.73;;;2.30;;
42194;SDS011;27863;49.440;11.102;2023-02-21T01:28:15;4.50;;;3.00;;
42194;SDS011;27863;49.440;11.102;2023-02-21T01:31:36;6.60;;;2.40;;
42194;SDS011;27863;49.440;11.102;2023-02-21T01:34:55;3.00;;;2.67;;
42194;SDS011;27863;49.440;11.102;2023-02-21T01:38:14;4.87;;;2.70;;
42194;SDS011;27863;49.440;11.102;2023-02-21T01:41:33;5.63;;;2.63;;
42194;SDS011;27863;49.440;11.102;2023-02-21T01:48:38;3.10;;;2.50;;
42194;SDS011;27863;49.440;11.102;2023-02-21T01:51:57;4.10;;;2.80;;
42194;SDS011;27863;49.440;11.102;2023-02-21T01:55:17;3.60;;;2.87;;
42194;SDS011;27863;49.440;11.102;2023-02-21T01:58:37;4.03;;;3.27;;
42194;SDS011;27863;49.440;11.102;2023-02-21T02:02:17;2.90;;;2.60;;
42194;SDS011;27863;49.440;11.102;2023-02-21T02:05:39;4.00;;;2.90;;
42194;SDS011;27863;49.440;11.102;2023-02-21T02:09:05;2.50;;;2.30;;
42194;SDS011;27863;49.440;11.102;2023-02-21T02:12:55;5.37;;;2.20;;
42194;SDS011;27863;49.440;11.102;2023-02-21T02:22:37;4.87;;;2.63;;
42194;SDS011;27863;49.440;11.102;2023-02-21T02:32:36;4.37;;;2.57;;
42194;SDS011;27863;49.440;11.102;2023-02-21T02:35:52;3.57;;;2.90;;
42194;SDS011;27863;49.440;11.102;2023-02-21T02:49:07;3.80;;;2.20;;
42194;SDS011;27863;49.440;11.102;2023-02-21T02:52:12;3.50;;;2.60;;
42194;SDS011;27863;49.440;11.102;2023-02-21T02:55:33;4.43;;;2.50;;
42194;SDS011;27863;49.440;11.102;2023-02-21T02:58:39;3.10;;;2.50;;
42194;SDS011;27863;49.440;11.102;2023-02-21T03:05:03;3.60;;;3.33;;
42194;SDS011;27863;49.440;11.102;2023-02-21T03:08:59;3.00;;;2.40;;
42194;SDS011;27863;49.440;11.102;2023-02-21T03:15:14;4.40;;;3.10;;
42194;SDS011;27863;49.440;11.102;2023-02-21T03:21:55;3.53;;;2.57;;
42194;SDS011;27863;49.440;11.102;2023-02-21T03:24:59;2.73;;;2.47;;
42194;SDS011;27863;49.440;11.102;2023-02-21T03:28:01;5.63;;;3.40;;
42194;SDS011;27863;49.440;11.102;2023-02-21T03:31:08;2.63;;;2.43;;
42194;SDS011;27863;49.440;11.102;2023-02-21T03:34:11;4.90;;;2.80;;
42194;SDS011;27863;49.440;11.102;2023-02-21T03:37:46;4.73;;;2.93;;
42194;SDS011;27863;49.440;11.102;2023-02-21T03:40:40;6.63;;;3.27;;
42194;SDS011;27863;49.440;11.102;2023-02-21T03:43:41;5.97;;;2.73;;
42194;SDS011;27863;49.440;11.102;2023-02-21T03:46:42;5.07;;;3.20;;
42194;SDS011;27863;49.440;11.102;2023-02-21T03:49:42;5.10;;;3.20;;
42194;SDS011;27863;49.440;11.102;2023-02-21T03:52:44;4.30;;;2.60;;
42194;SDS011;27863;49.440;11.102;2023-02-21T03:55:45;2.80;;;2.40;;
42194;SDS011;27863;49.440;11.102;2023-02-21T03:58:52;3.20;;;2.50;;
42194;SDS011;27863;49.440;11.102;2023-02-21T04:01:52;3.77;;;2.10;;
42194;SDS011;27863;49.440;11.102;2023-02-21T04:04:54;4.27;;;2.80;;
42194;SDS011;27863;49.440;11.102;2023-02-21T04:07:58;3.37;;;2.37;;
42194;SDS011;27863;49.440;11.102;2023-02-21T04:10:58;5.73;;;2.63;;
42194;SDS011;27863;49.440;11.102;2023-02-21T04:14:03;3.63;;;3.23;;
42194;SDS011;27863;49.440;11.102;2023-02-21T04:17:04;4.47;;;2.73;;
42194;SDS011;27863;49.440;11.102;2023-02-21T04:20:04;4.57;;;3.07;;
42194;SDS011;27863;49.440;11.102;2023-02-21T04:23:11;3.90;;;2.80;;
42194;SDS011;27863;49.440;11.102;2023-02-21T04:26:11;6.63;;;2.30;;
42194;SDS011;27863;49.440;11.102;2023-02-21T04:29:19;5.43;;;2.00;;
42194;SDS011;27863;49.440;11.102;2023-02-21T04:32:20;4.33;;;2.90;;
42194;SDS011;27863;49.440;11.102;2023-02-21T04:35:21;4.30;;;2.90;;
42194;SDS011;27863;49.440;11.102;2023-02-21T04:38:21;6.20;;;2.90;;
42194;SDS011;27863;49.440;11.102;2023-02-21T04:41:22;6.87;;;3.23;;
42194;SDS011;27863;49.440;11.102;2023-02-21T04:44:22;4.70;;;2.93;;
42194;SDS011;27863;49.440;11.102;2023-02-21T04:47:23;5.70;;;3.40;;
42194;SDS011;27863;49.440;11.102;2023-02-21T04:50:24;6.77;;;3.50;;
42194;SDS011;27863;49.440;11.102;2023-02-21T04:53:24;3.10;;;2.80;;
42194;SDS011;27863;49.440;11.102;2023-02-21T04:56:25;4.57;;;2.83;;
42194;SDS011;27863;49.440;11.102;2023-02-21T04:59:27;3.67;;;2.23;;
42194;SDS011;27863;49.440;11.102;2023-02-21T05:02:28;3.37;;;2.40;;
42194;SDS011;27863;49.440;11.102;2023-02-21T05:05:28;2.87;;;2.07;;
42194;SDS011;27863;49.440;11.102;2023-02-21T05:08:28;10.27;;;3.10;;
42194;SDS011;27863;49.440;11.102;2023-02-21T05:11:31;3.80;;;3.07;;
42194;SDS011;27863;49.440;11.102;2023-02-21T05:14:33;2.30;;;2.10;;
42194;SDS011;27863;49.440;11.102;2023-02-21T05:17:34;7.00;;;3.17;;
42194;SDS011;27863;49.440;11.102;2023-02-21T05:20:34;3.43;;;2.60;;
42194;SDS011;27863;49.440;11.102;2023-02-21T05:23:38;4.43;;;2.73;;
42194;SDS011;27863;49.440;11.102;2023-02-21T05:26:39;8.70;;;3.50;;
42194;SDS011;27863;49.440;11.102;2023-02-21T05:29:46;6.00;;;3.53;;
42194;SDS011;27863;49.440;11.102;2023-02-21T05:32:48;4.83;;;3.50;;
42194;SDS011;27863;49.440;11.102;2023-02-21T05:35:49;5.50;;;2.97;;
42194;SDS011;27863;49.440;11.102;2023-02-21T05:38:51;5.00;;;2.87;;
42194;SDS011;27863;49.440;11.102;2023-02-21T05:41:53;6.80;;;3.03;;
42194;SDS011;27863;49.440;11.102;2023-02-21T05:44:53;4.23;;;3.13;;
42194;SDS011;27863;49.440;11.102;2023-02-21T05:47:54;6.27;;;2.90;;
42194;SDS011;27863;49.440;11.102;2023-02-21T05:50:59;5.07;;;3.73;;
42194;SDS011;27863;49.440;11.102;2023-02-21T05:53:59;7.27;;;3.80;;
42194;SDS011;27863;49.440;11.102;2023-02-21T05:57:00;3.27;;;2.50;;
42194;SDS011;27863;49.440;11.102;2023-02-21T06:00:00;3.47;;;3.17;;
42194;SDS011;27863;49.440;11.102;2023-02-21T06:03:01;5.03;;;3.40;;
42194;SDS011;27863;49.440;11.102;2023-02-21T06:06:02;9.77;;;2.83;;
42194;SDS011;27863;49.440;11.102;2023-02-21T06:09:03;4.23;;;2.87;;
42194;SDS011;27863;49.440;11.102;2023-02-21T06:12:03;8.37;;;3.47;;
42194;SDS011;27863;49.440;11.102;2023-02-21T06:15:05;5.13;;;3.17;;
42194;SDS011;27863;49.440;11.102;2023-02-21T06:18:06;6.40;;;3.50;;
42194;SDS011;27863;49.440;11.102;2023-02-21T06:21:06;7.80;;;3.20;;
42194;SDS011;27863;49.440;11.102;2023-02-21T06:24:07;12.57;;;3.10;;
42194;SDS011;27863;49.440;11.102;2023-02-21T06:27:08;7.50;;;2.70;;
42194;SDS011;27863;49.440;11.102;2023-02-21T06:30:09;13.30;;;4.03;;
42194;SDS011;27863;49.440;11.102;2023-02-21T06:33:10;7.47;;;3.20;;
42194;SDS011;27863;49.440;11.102;2023-02-21T06:36:12;4.63;;;2.73;;
42194;SDS011;27863;49.440;11.102;2023-02-21T06:39:17;8.00;;;3.83;;
42194;SDS011;27863;49.440;11.102;2023-02-21T06:42:18;9.60;;;3.20;;
42194;SDS011;27863;49.440;11.102;2023-02-21T06:45:19;3.73;;;3.37;;
42194;SDS011;27863;49.440;11.102;2023-02-21T06:48:19;9.83;;;4.40;;
42194;SDS011;27863;49.440;11.102;2023-02-21T06:51:19;7.07;;;3.50;;
42194;SDS011;27863;49.440;11.102;2023-02-21T06:54:20;7.00;;;4.47;;
42194;SDS011;27863;49.440;11.102;2023-02-21T06:57:20;4.23;;;3.43;;
42194;SDS011;27863;49.440;11.102;2023-02-21T07:00:21;9.33;;;3.87;;
42194;SDS011;27863;49.440;11.102;2023-02-21T07:03:21;7.27;;;3.93;;
42194;SDS011;27863;49.440;11.102;2023-02-21T07:06:22;8.67;;;3.80;;
42194;SDS011;27863;49.440;11.102;2023-02-21T07:09:23;9.40;;;4.73;;
42194;SDS011;27863;49.440;11.102;2023-02-21T07:12:23;5.93;;;4.00;;
42194;SDS011;27863;49.440;11.102;2023-02-21T07:15:24;9.53;;;4.73;;
42194;SDS011;27863;49.440;11.102;2023-02-21T07:18:25;7.80;;;4.50;;
42194;SDS011;27863;49.440;11.102;2023-02-21T07:21:25;5.27;;;4.57;;
42194;SDS011;27863;49.440;11.102;2023-02-21T07:24:26;4.77;;;4.37;;
42194;SDS011;27863;49.440;11.102;2023-02-21T07:27:27;6.30;;;4.40;;
42194;SDS011;27863;49.440;11.102;2023-02-21T07:30:27;5.07;;;3.73;;
42194;SDS011;27863;49.440;11.102;2023-02-21T07:33:28;9.03;;;4.83;;
42194;SDS011;27863;49.440;11.102;2023-02-21T07:36:28;7.23;;;5.00;;
42194;SDS011;27863;49.440;11.102;2023-02-21T07:39:29;13.40;;;5.50;;
42194;SDS011;27863;49.440;11.102;2023-02-21T07:42:29;8.87;;;4.20;;
42194;SDS011;27863;49.440;11.102;2023-02-21T07:45:32;11.37;;;5.20;;
42194;SDS011;27863;49.440;11.102;2023-02-21T07:48:32;13.43;;;4.73;;
42194;SDS011;27863;49.440;11.102;2023-02-21T07:51:33;6.33;;;4.63;;
42194;SDS011;27863;49.440;11.102;2023-02-21T07:54:34;8.90;;;4.83;;
42194;SDS011;27863;49.440;11.102;2023-02-21T07:57:35;6.90;;;4.43;;
42194;SDS011;27863;49.440;11.102;2023-02-21T08:00:36;7.93;;;5.07;;
42194;SDS011;27863;49.440;11.102;2023-02-21T08:03:36;4.57;;;3.97;;
42194;SDS011;27863;49.440;11.102;2023-02-21T08:06:37;5.27;;;3.50;;
42194;SDS011;27863;49.440;11.102;2023-02-21T08:09:37;7.00;;;4.80;;
42194;SDS011;27863;49.440;11.102;2023-02-21T08:12:40;4.47;;;3.70;;
42194;SDS011;27863;49.440;11.102;2023-02-21T08:15:40;4.27;;;3.77;;
42194;SDS011;27863;49.440;11.102;2023-02-21T08:18:41;4.90;;;4.10;;
42194;SDS011;27863;49.440;11.102;2023-02-21T08:21:45;5.60;;;4.55;;
42194;SDS011;27863;49.440;11.102;2023-02-21T08:24:49;4.57;;;3.78;;
42194;SDS011;27863;49.440;11.102;2023-02-21T08:27:50;4.85;;;4.35;;
42194;SDS011;27863;49.440;11.102;2023-02-21T08:30:54;5.90;;;3.90;;
42194;SDS011;27863;49.440;11.102;2023-02-21T08:33:54;4.68;;;4.25;;
42194;SDS011;27863;49.440;11.102;2023-02-21T08:36:55;10.98;;;4.13;;
42194;SDS011;27863;49.440;11.102;2023-02-21T08:39:56;8.27;;;4.57;;
42194;SDS011;27863;49.440;11.102;2023-02-21T08:42:58;4.57;;;4.18;;
42194;SDS011;27863;49.440;11.102;2023-02-21T08:46:01;5.70;;;4.93;;
42194;SDS011;27863;49.440;11.102;2023-02-21T08:49:02;12.73;;;4.55;;
42194;SDS011;27863;49.440;11.102;2023-02-21T08:52:03;5.93;;;5.20;;
42194;SDS011;27863;49.440;11.102;2023-02-21T08:55:04;10.13;;;4.97;;
42194;SDS011;27863;49.440;11.102;2023-02-21T08:58:05;6.40;;;5.18;;
42194;SDS011;27863;49.440;11.102;2023-02-21T09:01:07;7.30;;;5.70;;
42194;SDS011;27863;49.440;11.102;2023-02-21T09:04:11;8.18;;;5.75;;
42194;SDS011;27863;49.440;11.102;2023-02-21T09:07:16;5.25;;;4.57;;
42194;SDS011;27863;49.440;11.102;2023-02-21T09:10:19;7.07;;;6.10;;
42194;SDS011;27863;49.440;11.102;2023-02-21T09:13:20;8.05;;;4.53;;
42194;SDS011;27863;49.440;11.102;2023-02-21T09:16:21;7.47;;;5.30;;
42194;SDS011;27863;49.440;11.102;2023-02-21T09:19:22;7.07;;;3.75;;
42194;SDS011;27863;49.440;11.102;2023-02-21T09:22:24;6.25;;;4.35;;
42194;SDS011;27863;49.440;11.102;2023-02-21T09:25:27;4.25;;;3.70;;
42194;SDS011;27863;49.440;11.102;2023-02-21T09:28:28;4.13;;;3.58;;
42194;SDS011;27863;49.440;11.102;2023-02-21T09:31:30;4.57;;;3.60;;
42194;SDS011;27863;49.440;11.102;2023-02-21T09:34:31;4.35;;;3.53;;
42194;SDS011;27863;49.440;11.102;2023-02-21T09:37:38;8.25;;;4.20;;
42194;SDS011;27863;49.440;11.102;2023-02-21T09:40:49;4.55;;;4.10;;
42194;SDS011;27863;49.440;11.102;2023-02-21T09:43:52;4.20;;;3.63;;
42194;SDS011;27863;49.440;11.102;2023-02-21T09:46:56;5.40;;;3.97;;
42194;SDS011;27863;49.440;11.102;2023-02-21T09:50:00;4.37;;;3.97;;
42194;SDS011;27863;49.440;11.102;2023-02-21T09:53:03;3.97;;;3.57;;
42194;SDS011;27863;49.440;11.102;2023-02-21T09:56:05;4.63;;;3.70;;
42194;SDS011;27863;49.440;11.102;2023-02-21T09:59:10;6.38;;;3.40;;
42194;SDS011;27863;49.440;11.102;2023-02-21T10:18:36;4.23;;;3.40;;
42194;SDS011;27863;49.440;11.102;2023-02-21T10:21:48;5.30;;;3.72;;
42194;SDS011;27863;49.440;11.102;2023-02-21T10:24:51;4.63;;;3.33;;
42194;SDS011;27863;49.440;11.102;2023-02-21T10:27:52;4.57;;;3.50;;
42194;SDS011;27863;49.440;11.102;2023-02-21T10:30:59;5.35;;;3.85;;
42194;SDS011;27863;49.440;11.102;2023-02-21T10:34:05;4.83;;;3.10;;
42194;SDS011;27863;49.440;11.102;2023-02-21T10:40:35;4.90;;;3.27;;
42194;SDS011;27863;49.440;11.102;2023-02-21T10:43:39;4.17;;;2.77;;
42194;SDS011;27863;49.440;11.102;2023-02-21T10:46:44;4.87;;;3.13;;
42194;SDS011;27863;49.440;11.102;2023-02-21T10:49:51;5.77;;;2.70;;
42194;SDS011;27863;49.440;11.102;2023-02-21T10:52:58;4.30;;;2.45;;
42194;SDS011;27863;49.440;11.102;2023-02-21T10:59:22;4.72;;;3.50;;
42194;SDS011;27863;49.440;11.102;2023-02-21T11:02:27;3.05;;;2.63;;
42194;SDS011;27863;49.440;11.102;2023-02-21T11:05:32;3.08;;;2.78;;
42194;SDS011;27863;49.440;11.102;2023-02-21T11:08:36;2.92;;;2.50;;
42194;SDS011;27863;49.440;11.102;2023-02-21T11:11:41;5.30;;;3.15;;
42194;SDS011;27863;49.440;11.102;2023-02-21T11:14:42;3.45;;;3.05;;
42194;SDS011;27863;49.440;11.102;2023-02-21T11:21:12;3.10;;;2.80;;
42194;SDS011;27863;49.440;11.102;2023-02-21T11:24:14;3.55;;;2.80;;
42194;SDS011;27863;49.440;11.102;2023-02-21T11:27:16;2.30;;;2.10;;
42194;SDS011;27863;49.440;11.102;2023-02-21T11:30:18;2.65;;;2.40;;
42194;SDS011;27863;49.440;11.102;2023-02-21T11:33:20;2.38;;;1.80;;
42194;SDS011;27863;49.440;11.102;2023-02-21T11:36:25;2.25;;;2.05;;
42194;SDS011;27863;49.440;11.102;2023-02-21T11:39:33;3.05;;;2.17;;
42194;SDS011;27863;49.440;11.102;2023-02-21T11:42:34;1.98;;;1.77;;
42194;SDS011;27863;49.440;11.102;2023-02-21T11:45:36;2.55;;;2.33;;
42194;SDS011;27863;49.440;11.102;2023-02-21T11:48:45;2.03;;;1.83;;
42194;SDS011;27863;49.440;11.102;2023-02-21T11:55:02;1.70;;;1.60;;
42194;SDS011;27863;49.440;11.102;2023-02-21T12:01:37;7.72;;;6.35;;
42194;SDS011;27863;49.440;11.102;2023-02-21T12:11:44;3.75;;;2.58;;
42194;SDS011;27863;49.440;11.102;2023-02-21T12:14:55;1.87;;;1.50;;
42194;SDS011;27863;49.440;11.102;2023-02-21T12:47:35;0.82;;;0.80;;
42194;SDS011;27863;49.440;11.102;2023-02-21T12:50:44;2.03;;;1.48;;
42194;SDS011;27863;49.440;11.102;2023-02-21T12:54:14;2.58;;;1.30;;
42194;SDS011;27863;49.440;11.102;2023-02-21T12:57:25;1.52;;;1.08;;
42194;SDS011;27863;49.440;11.102;2023-02-21T13:04:08;1.77;;;1.13;;
42194;SDS011;27863;49.440;11.102;2023-02-21T13:07:21;3.15;;;0.80;;
42194;SDS011;27863;49.440;11.102;2023-02-21T13:10:50;0.70;;;0.60;;
42194;SDS011;27863;49.440;11.102;2023-02-21T13:13:56;1.33;;;0.88;;
42194;SDS011;27863;49.440;11.102;2023-02-21T13:16:57;0.75;;;0.60;;
42194;SDS011;27863;49.440;11.102;2023-02-21T13:30:04;1.92;;;1.20;;
42194;SDS011;27863;49.440;11.102;2023-02-21T13:36:46;0.70;;;0.50;;
42194;SDS011;27863;49.440;11.102;2023-02-21T13:39:57;2.15;;;0.70;;
42194;SDS011;27863;49.440;11.102;2023-02-21T13:43:22;1.00;;;0.57;;
42194;SDS011;27863;49.440;11.102;2023-02-21T13:46:55;0.85;;;0.50;;
42194;SDS011;27863;49.440;11.102;2023-02-21T13:52:50;0.70;;;0.70;;
42194;SDS011;27863;49.440;11.102;2023-02-21T13:59:28;0.55;;;0.52;;
42194;SDS011;27863;49.440;11.102;2023-02-21T14:02:26;1.05;;;0.65;;
42194;SDS011;27863;49.440;11.102;2023-02-21T14:08:55;8.38;;;0.70;;
42194;SDS011;27863;49.440;11.102;2023-02-21T14:12:01;3.17;;;0.88;;
42194;SDS011;27863;49.440;11.102;2023-02-21T14:15:05;3.20;;;0.70;;
42194;SDS011;27863;49.440;11.102;2023-02-21T14:18:17;1.88;;;0.82;;
42194;SDS011;27863;49.440;11.102;2023-02-21T14:24:46;2.67;;;1.00;;
42194;SDS011;27863;49.440;11.102;2023-02-21T14:27:49;1.65;;;0.50;;
42194;SDS011;27863;49.440;11.102;2023-02-21T14:31:00;0.73;;;0.40;;
42194;SDS011;27863;49.440;11.102;2023-02-21T14:34:01;0.85;;;0.63;;
42194;SDS011;27863;49.440;11.102;2023-02-21T14:37:03;1.50;;;1.15;;
42194;SDS011;27863;49.440;11.102;2023-02-21T14:40:16;0.30;;;0.30;;
42194;SDS011;27863;49.440;11.102;2023-02-21T14:50:35;0.75;;;0.40;;
42194;SDS011;27863;49.440;11.102;2023-02-21T15:03:16;1.58;;;1.33;;
42194;SDS011;27863;49.440;11.102;2023-02-21T15:06:20;2.97;;;0.90;;
42194;SDS011;27863;49.440;11.102;2023-02-21T15:09:25;1.08;;;0.40;;
42194;SDS011;27863;49.440;11.102;2023-02-21T15:12:26;1.50;;;0.80;;
42194;SDS011;27863;49.440;11.102;2023-02-21T15:15:28;0.82;;;0.80;;
42194;SDS011;27863;49.440;11.102;2023-02-21T15:18:36;1.10;;;0.80;;
42194;SDS011;27863;49.440;11.102;2023-02-21T15:21:37;0.88;;;0.70;;
42194;SDS011;27863;49.440;11.102;2023-02-21T15:24:38;0.60;;;0.60;;
42194;SDS011;27863;49.440;11.102;2023-02-21T15:31:01;1.77;;;1.40;;
42194;SDS011;27863;49.440;11.102;2023-02-21T15:34:04;4.63;;;3.53;;
42194;SDS011;27863;49.440;11.102;2023-02-21T15:37:11;1.42;;;0.70;;
42194;SDS011;27863;49.440;11.102;2023-02-21T15:40:18;1.13;;;0.70;;
42194;SDS011;27863;49.440;11.102;2023-02-21T15:43:22;1.42;;;1.27;;
42194;SDS011;27863;49.440;11.102;2023-02-21T15:46:57;0.88;;;0.70;;
42194;SDS011;27863;49.440;11.102;2023-02-21T15:53:20;2.10;;;0.70;;
42194;SDS011;27863;49.440;11.102;2023-02-21T15:56:23;1.77;;;0.70;;
42194;SDS011;27863;49.440;11.102;2023-02-21T15:59:26;1.17;;;0.60;;
42194;SDS011;27863;49.440;11.102;2023-02-21T16:02:27;0.90;;;0.63;;
42194;SDS011;27863;49.440;11.102;2023-02-21T16:05:29;0.60;;;0.45;;
42194;SDS011;27863;49.440;11.102;2023-02-21T16:08:29;6.10;;;1.00;;
42194;SDS011;27863;49.440;11.102;2023-02-21T16:17:56;0.73;;;0.73;;
42194;SDS011;27863;49.440;11.102;2023-02-21T16:21:00;0.80;;;0.80;;
42194;SDS011;27863;49.440;11.102;2023-02-21T16:24:21;0.50;;;0.50;;
42194;SDS011;27863;49.440;11.102;2023-02-21T16:27:27;2.10;;;1.10;;
42194;SDS011;27863;49.440;11.102;2023-02-21T16:30:29;1.17;;;0.97;;
42194;SDS011;27863;49.440;11.102;2023-02-21T16:33:31;1.80;;;1.03;;
42194;SDS011;27863;49.440;11.102;2023-02-21T16:36:32;2.83;;;1.07;;
42194;SDS011;27863;49.440;11.102;2023-02-21T16:39:33;1.60;;;1.10;;
42194;SDS011;27863;49.440;11.102;2023-02-21T16:42:34;1.47;;;1.20;;
42194;SDS011;27863;49.440;11.102;2023-02-21T16:45:36;2.20;;;2.00;;
42194;SDS011;27863;49.440;11.102;2023-02-21T16:48:38;1.70;;;1.30;;
42194;SDS011;27863;49.440;11.102;2023-02-21T16:51:39;1.20;;;1.10;;
42194;SDS011;27863;49.440;11.102;2023-02-21T16:54:42;1.20;;;1.10;;
42194;SDS011;27863;49.440;11.102;2023-02-21T16:57:49;2.50;;;0.97;;
42194;SDS011;27863;49.440;11.102;2023-02-21T17:00:53;2.20;;;1.27;;
42194;SDS011;27863;49.440;11.102;2023-02-21T17:03:55;1.80;;;1.13;;
42194;SDS011;27863;49.440;11.102;2023-02-21T17:06:58;1.40;;;1.00;;
42194;SDS011;27863;49.440;11.102;2023-02-21T17:10:03;2.03;;;1.87;;
42194;SDS011;27863;49.440;11.102;2023-02-21T17:13:04;2.33;;;1.20;;
42194;SDS011;27863;49.440;11.102;2023-02-21T17:16:05;2.83;;;1.80;;
42194;SDS011;27863;49.440;11.102;2023-02-21T17:19:06;2.23;;;1.70;;
42194;SDS011;27863;49.440;11.102;2023-02-21T17:22:11;2.00;;;1.80;;
42194;SDS011;27863;49.440;11.102;2023-02-21T17:25:13;2.93;;;1.77;;
42194;SDS011;27863;49.440;11.102;2023-02-21T17:28:15;2.33;;;1.83;;
42194;SDS011;27863;49.440;11.102;2023-02-21T17:31:16;3.13;;;1.73;;
42194;SDS011;27863;49.440;11.102;2023-02-21T17:34:19;2.47;;;2.00;;
42194;SDS011;27863;49.440;11.102;2023-02-21T17:37:19;2.07;;;1.57;;
42194;SDS011;27863;49.440;11.102;2023-02-21T17:40:20;6.37;;;1.90;;
42194;SDS011;27863;49.440;11.102;2023-02-21T17:43:21;3.20;;;1.70;;
42194;SDS011;27863;49.440;11.102;2023-02-21T17:46:22;2.23;;;2.03;;
42194;SDS011;27863;49.440;11.102;2023-02-21T17:49:24;2.77;;;1.93;;
42194;SDS011;27863;49.440;11.102;2023-02-21T17:52:26;4.43;;;2.03;;
42194;SDS011;27863;49.440;11.102;2023-02-21T17:55:26;2.67;;;2.13;;
42194;SDS011;27863;49.440;11.102;2023-02-21T17:58:29;6.80;;;3.73;;
42194;SDS011;27863;49.440;11.102;2023-02-21T18:01:31;4.77;;;3.00;;
42194;SDS011;27863;49.440;11.102;2023-02-21T18:04:33;4.23;;;3.33;;
42194;SDS011;27863;49.440;11.102;2023-02-21T18:07:35;4.87;;;4.13;;
42194;SDS011;27863;49.440;11.102;2023-02-21T18:10:36;5.30;;;4.40;;
42194;SDS011;27863;49.440;11.102;2023-02-21T18:13:36;3.70;;;3.27;;
42194;SDS011;27863;49.440;11.102;2023-02-21T18:16:47;3.30;;;2.77;;
42194;SDS011;27863;49.440;11.102;2023-02-21T18:19:48;3.90;;;3.50;;
42194;SDS011;27863;49.440;11.102;2023-02-21T18:22:48;3.87;;;3.50;;
42194;SDS011;27863;49.440;11.102;2023-02-21T18:25:49;2.77;;;2.57;;
42194;SDS011;27863;49.440;11.102;2023-02-21T18:28:49;4.23;;;3.83;;
42194;SDS011;27863;49.440;11.102;2023-02-21T18:31:53;4.77;;;3.83;;
42194;SDS011;27863;49.440;11.102;2023-02-21T18:34:55;5.53;;;4.87;;
42194;SDS011;27863;49.440;11.102;2023-02-21T18:37:56;5.33;;;4.20;;
42194;SDS011;27863;49.440;11.102;2023-02-21T18:40:57;3.97;;;3.53;;
42194;SDS011;27863;49.440;11.102;2023-02-21T18:44:00;4.67;;;3.03;;
42194;SDS011;27863;49.440;11.102;2023-02-21T18:47:01;4.27;;;2.80;;
42194;SDS011;27863;49.440;11.102;2023-02-21T18:50:02;3.90;;;2.53;;
42194;SDS011;27863;49.440;11.102;2023-02-21T18:53:04;4.27;;;2.73;;
42194;SDS011;27863;49.440;11.102;2023-02-21T18:56:08;7.77;;;3.60;;
42194;SDS011;27863;49.440;11.102;2023-02-21T18:59:10;3.23;;;2.93;;
42194;SDS011;27863;49.440;11.102;2023-02-21T19:02:12;7.40;;;5.83;;
42194;SDS011;27863;49.440;11.102;2023-02-21T19:05:16;6.70;;;3.57;;
42194;SDS011;27863;49.440;11.102;2023-02-21T19:08:19;12.73;;;6.97;;
42194;SDS011;27863;49.440;11.102;2023-02-21T19:11:20;3.97;;;3.50;;
42194;SDS011;27863;49.440;11.102;2023-02-21T19:14:21;5.57;;;3.30;;
42194;SDS011;27863;49.440;11.102;2023-02-21T19:17:21;3.27;;;2.97;;
42194;SDS011;27863;49.440;11.102;2023-02-21T19:20:22;2.97;;;2.60;;
42194;SDS011;27863;49.440;11.102;2023-02-21T19:23:23;8.60;;;7.63;;
42194;SDS011;27863;49.440;11.102;2023-02-21T19:26:26;4.00;;;3.60;;
42194;SDS011;27863;49.440;11.102;2023-02-21T19:29:28;8.03;;;2.43;;
42194;SDS011;27863;49.440;11.102;2023-02-21T19:32:29;4.87;;;3.47;;
42194;SDS011;27863;49.440;11.102;2023-02-21T19:35:30;6.23;;;2.87;;
42194;SDS011;27863;49.440;11.102;2023-02-21T19:38:33;3.03;;;2.73;;
42194;SDS011;27863;49.440;11.102;2023-02-21T19:41:33;3.40;;;3.07;;
42194;SDS011;27863;49.440;11.102;2023-02-21T19:44:37;4.00;;;2.83;;
42194;SDS011;27863;49.440;11.102;2023-02-21T19:47:44;5.27;;;2.77;;
42194;SDS011;27863;49.440;11.102;2023-02-21T19:50:48;4.50;;;2.93;;
42194;SDS011;27863;49.440;11.102;2023-02-21T19:53:49;5.10;;;3.40;;
42194;SDS011;27863;49.440;11.102;2023-02-21T19:56:49;3.43;;;2.73;;
42194;SDS011;27863;49.440;11.102;2023-02-21T19:59:52;2.53;;;2.30;;
42194;SDS011;27863;49.440;11.102;2023-02-21T20:02:53;3.70;;;3.37;;
42194;SDS011;27863;49.440;11.102;2023-02-21T20:05:55;3.60;;;3.30;;
42194;SDS011;27863;49.440;11.102;2023-02-21T20:08:56;4.00;;;2.73;;
42194;SDS011;27863;49.440;11.102;2023-02-21T20:11:58;4.90;;;3.40;;
42194;SDS011;27863;49.440;11.102;2023-02-21T20:14:58;3.10;;;2.80;;
42194;SDS011;27863;49.440;11.102;2023-02-21T20:17:59;8.30;;;3.40;;
42194;SDS011;27863;49.440;11.102;2023-02-21T20:20:59;3.53;;;3.13;;
42194;SDS011;27863;49.440;11.102;2023-02-21T20:24:00;5.53;;;3.20;;
42194;SDS011;27863;49.440;11.102;2023-02-21T20:27:02;3.90;;;2.83;;
42194;SDS011;27863;49.440;11.102;2023-02-21T20:30:03;3.07;;;2.77;;
42194;SDS011;27863;49.440;11.102;2023-02-21T20:33:04;5.63;;;2.87;;
42194;SDS011;27863;49.440;11.102;2023-02-21T20:36:06;3.27;;;2.57;;
42194;SDS011;27863;49.440;11.102;2023-02-21T20:39:15;3.17;;;2.67;;
42194;SDS011;27863;49.440;11.102;2023-02-21T20:42:19;3.63;;;2.23;;
42194;SDS011;27863;49.440;11.102;2023-02-21T20:45:21;2.40;;;2.07;;
42194;SDS011;27863;49.440;11.102;2023-02-21T20:48:22;3.07;;;2.60;;
42194;SDS011;27863;49.440;11.102;2023-02-21T20:51:28;3.43;;;3.13;;
42194;SDS011;27863;49.440;11.102;2023-02-21T20:54:30;6.33;;;3.50;;
42194;SDS011;27863;49.440;11.102;2023-02-21T20:57:31;4.70;;;3.03;;
42194;SDS011;27863;49.440;11.102;2023-02-21T21:00:33;3.87;;;2.43;;
42194;SDS011;27863;49.440;11.102;2023-02-21T21:03:38;5.97;;;2.67;;
42194;SDS011;27863;49.440;11.102;2023-02-21T21:06:40;3.00;;;2.23;;